createdAt,value
2023-05-06T00:04:44.457Z,78.51
2023-05-06T00:09:48.344Z,78.66
2023-05-06T00:14:51.876Z,78.95
2023-05-06T00:19:56.192Z,79.18
2023-05-06T00:24:59.358Z,78.85
2023-05-06T00:30:02.323Z,78.80
2023-05-06T00:35:06.547Z,78.39
2023-05-06T00:40:10.846Z,78.36
2023-05-06T00:45:13.840Z,78.65
2023-05-06T00:50:17.329Z,78.38
2023-05-06T00:55:21.461Z,78.87
2023-05-06T01:00:24.510Z,78.77
2023-05-06T01:05:52.444Z,79.06
2023-05-06T01:11:15.909Z,78.96
2023-05-06T01:16:23.454Z,79.07
2023-05-06T01:21:34.922Z,79.80
2023-05-06T01:26:38.294Z,80.03
2023-05-06T01:31:50.232Z,81.95
2023-05-06T01:37:21.270Z,82.99
2023-05-06T01:42:26.063Z,83.08
2023-05-06T01:47:29.140Z,83.01
2023-05-06T01:52:31.990Z,82.90
2023-05-06T01:57:35.265Z,83.00
2023-05-06T02:02:38.512Z,82.90
2023-05-06T02:07:41.642Z,83.45
2023-05-06T02:12:44.465Z,83.51
2023-05-06T02:17:47.917Z,83.58
2023-05-06T02:22:51.043Z,84.11
2023-05-06T02:27:53.962Z,84.31
2023-05-06T02:32:57.830Z,84.52
2023-05-06T02:38:01.562Z,84.64
2023-05-06T02:43:04.681Z,84.85
2023-05-06T02:48:07.675Z,85.02
2023-05-06T02:53:13.162Z,84.97
2023-05-06T02:58:16.173Z,85.07
2023-05-06T03:03:19.108Z,84.87
2023-05-06T03:08:22.268Z,84.70
2023-05-06T03:13:25.107Z,84.46
2023-05-06T03:18:28.048Z,84.65
2023-05-06T03:23:31.198Z,84.77
2023-05-06T03:28:34.338Z,84.89
2023-05-06T03:33:37.343Z,85.15
2023-05-06T03:38:41.634Z,85.58
2023-05-06T03:43:44.716Z,85.69
2023-05-06T03:48:47.849Z,85.75
2023-05-06T03:53:52.346Z,86.57
2023-05-06T03:58:57.133Z,86.81
2023-05-06T04:04:00.338Z,87.22
2023-05-06T04:09:06.418Z,87.86
2023-05-06T04:14:09.422Z,88.13
2023-05-06T04:19:13.012Z,88.27
2023-05-06T04:24:18.705Z,87.81
2023-05-06T04:29:21.717Z,88.29
2023-05-06T04:34:25.268Z,88.37
2023-05-06T04:39:28.546Z,88.36
2023-05-06T04:44:34.078Z,88.43
2023-05-06T04:49:37.026Z,88.26
2023-05-06T04:54:39.932Z,88.18
2023-05-06T04:59:42.881Z,87.88
2023-05-06T05:04:45.717Z,86.96
2023-05-06T05:09:49.395Z,86.27
2023-05-06T05:14:52.568Z,85.91
2023-05-06T05:19:55.501Z,85.23
2023-05-06T05:24:58.574Z,84.48
2023-05-06T05:30:01.591Z,84.18
2023-05-06T05:35:06.132Z,84.19
2023-05-06T05:40:10.076Z,84.50
2023-05-06T05:45:12.892Z,84.28
2023-05-06T05:50:15.810Z,83.47
2023-05-06T05:55:18.650Z,81.66
2023-05-06T06:00:21.665Z,79.32
2023-05-06T06:05:24.616Z,77.73
2023-05-06T06:10:27.679Z,75.90
2023-05-06T06:15:31.834Z,75.27
2023-05-06T06:20:36.152Z,74.04
2023-05-06T06:25:39.062Z,71.60
2023-05-06T06:30:42.018Z,71.17
2023-05-06T06:35:45.024Z,70.65
2023-05-06T06:40:47.972Z,70.75
2023-05-06T06:45:51.400Z,70.74
2023-05-06T06:50:54.420Z,69.55
2023-05-06T06:55:57.242Z,69.24
2023-05-06T07:01:00.387Z,69.15
2023-05-06T07:06:03.605Z,67.62
2023-05-06T07:11:06.695Z,65.87
2023-05-06T07:16:09.904Z,65.72
2023-05-06T07:21:12.827Z,64.60
2023-05-06T07:26:15.864Z,63.88
2023-05-06T07:31:21.202Z,61.81
2023-05-06T07:36:24.737Z,61.59
2023-05-06T07:41:28.199Z,61.13
2023-05-06T07:46:31.412Z,61.63
2023-05-06T07:51:34.294Z,60.28
2023-05-06T07:56:37.479Z,59.57
2023-05-06T08:01:40.851Z,59.38
2023-05-06T08:06:43.942Z,59.18
2023-05-06T08:11:47.063Z,58.72
2023-05-06T08:16:51.018Z,58.86
2023-05-06T08:21:55.632Z,58.60
2023-05-06T08:26:58.567Z,58.60
2023-05-06T08:32:01.768Z,57.70
2023-05-06T08:37:04.658Z,56.82
2023-05-06T08:42:12.055Z,55.29
2023-05-06T08:47:15.133Z,54.51
2023-05-06T08:52:19.980Z,54.19
2023-05-06T08:57:22.999Z,54.65
2023-05-06T09:02:26.805Z,54.14
2023-05-06T09:07:30.100Z,54.32
2023-05-06T09:12:38.105Z,53.17
2023-05-06T09:17:41.205Z,52.87
2023-05-06T09:22:44.407Z,50.81
2023-05-06T09:27:47.382Z,51.61
2023-05-06T09:32:53.188Z,51.07
2023-05-06T09:37:56.820Z,49.26
2023-05-06T09:43:03.593Z,49.56
2023-05-06T09:48:08.404Z,47.28
2023-05-06T09:53:13.362Z,45.05
2023-05-06T09:58:17.625Z,45.52
2023-05-06T10:03:22.591Z,43.22
2023-05-06T10:08:26.466Z,42.55
2023-05-06T10:13:31.394Z,43.03
2023-05-06T10:18:37.151Z,43.44
2023-05-06T10:24:11.460Z,43.17
2023-05-06T10:29:15.095Z,43.75
2023-05-06T10:34:21.631Z,43.54
2023-05-06T10:39:25.334Z,44.16
2023-05-06T10:44:58.348Z,43.15
2023-05-06T10:50:33.744Z,43.80
2023-05-06T10:55:40.243Z,42.03
2023-05-06T11:00:57.110Z,41.43
2023-05-06T11:06:00.537Z,40.43
2023-05-06T11:11:48.059Z,39.29
2023-05-06T11:16:52.727Z,38.13
2023-05-06T11:21:58.531Z,38.45
2023-05-06T11:27:01.792Z,38.49
2023-05-06T11:32:21.540Z,39.34
2023-05-06T11:37:27.143Z,40.30
2023-05-06T11:42:30.010Z,41.07
2023-05-06T11:47:33.015Z,40.63
2023-05-06T11:52:36.212Z,41.25
2023-05-06T11:57:44.707Z,42.50
2023-05-06T12:02:47.588Z,43.13
2023-05-06T12:07:51.346Z,43.82
2023-05-06T12:12:54.986Z,44.22
2023-05-06T12:17:58.169Z,44.46
2023-05-06T12:23:15.706Z,45.01
2023-05-06T12:28:26.967Z,44.76
2023-05-06T12:33:45.755Z,44.64
2023-05-06T12:38:57.558Z,45.45
2023-05-06T12:44:00.685Z,44.77
2023-05-06T12:49:03.873Z,44.85
2023-05-06T12:54:30.960Z,45.69
2023-05-06T12:59:36.372Z,44.68
2023-05-06T13:04:39.429Z,46.35
2023-05-06T13:09:44.940Z,47.08
2023-05-06T13:14:47.864Z,49.34
2023-05-06T13:19:51.182Z,49.98
2023-05-06T13:24:54.219Z,50.68
2023-05-06T13:29:57.456Z,51.75
2023-05-06T13:35:00.669Z,52.00
2023-05-06T13:40:05.045Z,53.44
2023-05-06T13:45:09.133Z,55.25
2023-05-06T13:50:12.306Z,57.25
2023-05-06T13:55:16.905Z,58.65
2023-05-06T14:00:22.029Z,61.97
2023-05-06T14:05:25.294Z,64.77
2023-05-06T14:10:28.309Z,68.38
2023-05-06T14:15:31.342Z,72.98
2023-05-06T14:20:34.283Z,75.61
2023-05-06T14:25:37.352Z,78.00
2023-05-06T14:30:41.128Z,79.87
2023-05-06T14:35:46.307Z,81.33
2023-05-06T14:40:50.910Z,82.58
2023-05-06T14:45:54.372Z,83.45
2023-05-06T14:50:57.512Z,84.36
2023-05-06T14:56:00.874Z,84.72
2023-05-06T15:01:04.020Z,85.06
2023-05-06T15:06:06.969Z,84.45
2023-05-06T15:11:10.100Z,84.45
2023-05-06T15:16:13.024Z,84.26
2023-05-06T15:21:17.492Z,82.53
2023-05-06T15:26:21.603Z,81.99
2023-05-06T15:31:24.640Z,73.41
2023-05-06T15:36:27.858Z,68.02
2023-05-06T15:41:36.359Z,62.28
2023-05-06T15:46:39.848Z,61.72
2023-05-06T15:51:42.847Z,60.47
2023-05-06T15:56:46.668Z,59.05
2023-05-06T16:06:56.254Z,57.60
2023-05-06T16:11:59.184Z,55.98
2023-05-06T16:17:02.252Z,57.12
2023-05-06T16:22:05.194Z,57.98
2023-05-06T16:27:08.430Z,58.07
2023-05-06T16:32:11.918Z,58.65
2023-05-06T16:37:15.727Z,59.54
2023-05-06T16:42:18.616Z,60.24
2023-05-06T16:47:24.165Z,62.39
2023-05-06T16:52:28.998Z,64.55
2023-05-06T16:57:33.796Z,65.81
2023-05-06T17:02:37.847Z,66.79
2023-05-06T17:07:41.138Z,68.14
2023-05-06T17:12:44.223Z,68.80
2023-05-06T17:17:47.545Z,69.96
2023-05-06T17:22:50.907Z,71.61
2023-05-06T17:27:54.038Z,72.46
2023-05-06T17:32:57.172Z,73.65
2023-05-06T17:38:00.545Z,74.56
2023-05-06T17:43:03.683Z,75.06
2023-05-06T17:48:06.877Z,75.41
2023-05-06T17:53:10.057Z,76.33
2023-05-06T17:58:13.176Z,76.83
2023-05-06T18:03:16.501Z,77.44
2023-05-06T18:08:19.844Z,78.47
2023-05-06T18:13:23.664Z,79.05
2023-05-06T18:18:26.767Z,79.71
2023-05-06T18:23:30.033Z,80.75
2023-05-06T18:28:40.154Z,81.19
2023-05-06T18:33:43.436Z,81.77
2023-05-06T18:38:46.548Z,81.35
2023-05-06T18:43:49.544Z,81.60
2023-05-06T18:48:52.469Z,81.84
2023-05-06T18:53:55.729Z,83.01
2023-05-06T18:58:59.707Z,83.40
2023-05-06T19:04:02.704Z,83.38
2023-05-06T19:09:10.188Z,83.58
2023-05-06T19:14:13.372Z,83.53
2023-05-06T19:19:16.429Z,83.71
2023-05-06T19:24:19.483Z,83.57
2023-05-06T19:29:22.283Z,83.33
2023-05-06T19:34:25.761Z,82.51
2023-05-06T19:39:28.690Z,82.94
2023-05-06T19:44:31.876Z,83.26
2023-05-06T19:49:34.878Z,82.78
2023-05-06T19:54:37.928Z,82.60
2023-05-06T19:59:41.014Z,82.66
2023-05-06T20:04:44.195Z,82.30
2023-05-06T20:09:47.098Z,83.40
2023-05-06T20:14:50.031Z,83.82
2023-05-06T20:19:53.474Z,84.05
2023-05-06T20:25:13.070Z,84.55
2023-05-06T20:30:16.436Z,85.07
2023-05-06T20:35:19.989Z,85.23
2023-05-06T20:40:23.085Z,85.09
2023-05-06T20:45:26.185Z,85.02
2023-05-06T20:50:30.998Z,84.72
2023-05-06T20:55:34.251Z,84.99
2023-05-06T21:00:37.184Z,84.95
2023-05-06T21:05:40.212Z,84.95
2023-05-06T21:10:44.313Z,85.34
2023-05-06T21:15:47.051Z,85.58
2023-05-06T21:20:49.999Z,85.65
2023-05-06T21:25:53.017Z,85.94
2023-05-06T21:30:56.075Z,86.02
2023-05-06T21:35:58.911Z,86.09
2023-05-06T21:41:01.865Z,86.43
2023-05-06T21:46:04.808Z,86.78
2023-05-06T21:51:07.816Z,87.02
2023-05-06T21:56:11.015Z,86.98
2023-05-06T22:01:14.478Z,87.68
2023-05-06T22:06:17.585Z,88.06
2023-05-06T22:11:22.680Z,88.06
2023-05-06T22:16:25.800Z,88.77
2023-05-06T22:21:31.751Z,88.76
2023-05-06T22:26:34.885Z,89.09
2023-05-06T22:31:38.028Z,89.31
2023-05-06T22:36:41.504Z,89.04
2023-05-06T22:41:44.797Z,89.35
2023-05-06T22:46:47.862Z,89.22
2023-05-06T22:51:50.682Z,89.27
2023-05-06T22:56:53.684Z,89.34
2023-05-06T23:01:56.832Z,89.58
2023-05-06T23:06:59.744Z,89.31
2023-05-06T23:12:02.895Z,89.20
2023-05-06T23:17:07.169Z,89.50
2023-05-06T23:22:10.315Z,89.34
2023-05-06T23:27:13.147Z,88.97
2023-05-06T23:32:16.753Z,89.56
2023-05-06T23:37:19.753Z,89.19
2023-05-06T23:42:22.863Z,88.97
2023-05-06T23:47:26.691Z,89.70
2023-05-06T23:52:29.756Z,90.47
2023-05-06T23:57:32.812Z,90.55
